INFORMACIÓN METAR y TAF
METAR FOR LEVX
ADDS - METARS form results

(0526 UTC 22 August 2019)
Data provider http://aviationweather.gov/metar/data/
 
METAR text: LEVX 220500Z 21006KT 170V240 CAVOK 16/14 Q1018 NOSIG
Conditions at: LEVX (VIGO/PEINADOR , ES) observed 0500 UTC 22 August 2019
Temperature: 16.0°C (61°F)
Dewpoint: 14.0°C (57°F) [RH = 88%]
Pressure (altimeter): 30.06 inches Hg (1018.0 mb)
Winds: from the SSW (210 degrees) at 7 MPH (6 knots; 3.1 m/s)
Visibility: 6 or more miles (10+ km)
Ceiling: ceiling and visibility are OK
Clouds: unknown
Weather: no significant weather observed at this time

METAR text: LEVX 220430Z 21006KT 180V240 CAVOK 16/14 Q1018 NOSIG
Conditions at: LEVX (VIGO/PEINADOR , ES) observed 0430 UTC 22 August 2019
Temperature: 16.0°C (61°F)
Dewpoint: 14.0°C (57°F) [RH = 88%]
Pressure (altimeter): 30.06 inches Hg (1018.0 mb)
Winds: from the SSW (210 degrees) at 7 MPH (6 knots; 3.1 m/s)
Visibility: 6 or more miles (10+ km)
Ceiling: ceiling and visibility are OK
Clouds: unknown
Weather: no significant weather observed at this time

Forecast for: LEVX (VIGO/PEINADOR , ES)
Text: TAF LEVX 220500Z 2206/2306 18007KT CAVOK TX32/2214Z TN16/2206Z
Forecast period: 0600 UTC 22 August 2019 to 0600 UTC 23 August 2019
Forecast type: FROM: standard forecast or significant change
Winds: from the S (180 degrees) at 8 MPH (7 knots; 3.6 m/s)
Visibility: 6 or more miles 10+ km)
Ceiling: unknown
Clouds: missing
Weather: no significant weather forecast for this period
Text: TEMPO 2212/2218 30010KT
Forecast period: 1200 to 1800 UTC 22 August 2019
Forecast type: TEMPORARY: The following changes expected for less than half the time period
Winds: from the WNW (300 degrees) at 12 MPH (10 knots; 5.1 m/s)
Visibility: missing
Ceiling: unknown
Clouds: missing
Weather: no significant weather forecast for this period

 MAPA DE AEROPUERTO

 INFORMACIÓN DE PISTA
Pista 02 Longitud 7874 ft Ancho 148 ft
Elevación 855 ft Umbral desplazado 0 ft Rumbo de pista 11
Pista 20 Longitud 7874 ft Ancho 148 ft
Elevación 829 ft Umbral desplazado 0 ft Rumbo de pista 191

 FRECUANCIAS DEL AEROPUERTO
Tipo APP Nombre SANTIAGO A Frecuencia 120.2 MHZ
Tipo GND Nombre GND Frecuencia 121.7 MHZ
Tipo TWR Nombre TWR Frecuencia 118.45 MHZ

 RADIO AYUDAS DEL AEROPUERTO
Tipo VOR-DME Nombre Vigo Frecuencia 113600 KHZ
Tipo NDB Nombre Vigo Frecuencia 345 KHZ
Tipo NDB Nombre Vigo Frecuencia 433 KHZ



              


PayPal

©2019 Oasis Virtual Airlines
Simulando desde el 2013

Oasis Líneas Aéreas Virtuales no está relacionada con ninguna compañía real.
Se trata de un entorno virtual de simulación aérea, sin ánimo de lucro.


Visitas: 43.085

VAM v2.6.2 [MOD.]